createdAt,value
2018-11-12T00:00:12.756Z,0.50
2018-11-12T00:02:41.370Z,0.70
2018-11-12T00:05:09.877Z,0.63
2018-11-12T00:07:38.387Z,0.50
2018-11-12T00:10:07.885Z,0.40
2018-11-12T00:12:36.526Z,0.70
2018-11-12T00:15:06.351Z,0.60
2018-11-12T00:17:35.009Z,0.60
2018-11-12T00:20:04.059Z,0.70
2018-11-12T00:22:32.516Z,0.60
2018-11-12T00:25:01.134Z,0.60
2018-11-12T00:27:29.641Z,0.43
2018-11-12T00:29:58.791Z,0.50
2018-11-12T00:32:27.447Z,0.60
2018-11-12T00:34:55.896Z,0.43
2018-11-12T00:37:24.593Z,0.60
2018-11-12T00:39:53.057Z,0.70
2018-11-12T00:42:21.551Z,0.60
2018-11-12T00:44:50.226Z,0.63
2018-11-12T00:47:18.706Z,0.60
2018-11-12T00:49:47.125Z,0.70
2018-11-12T00:52:15.765Z,0.60
2018-11-12T00:54:44.153Z,0.60
2018-11-12T00:57:12.600Z,0.50
2018-11-12T00:59:41.106Z,0.60
2018-11-12T01:02:09.622Z,0.70
2018-11-12T01:04:38.289Z,0.50
2018-11-12T01:07:06.697Z,0.53
2018-11-12T01:09:35.643Z,0.63
2018-11-12T01:12:04.789Z,0.70
2018-11-12T01:14:33.288Z,0.50
2018-11-12T01:17:02.007Z,0.60
2018-11-12T01:19:30.696Z,0.53
2018-11-12T01:21:59.438Z,0.50
2018-11-12T01:24:28.075Z,0.70
2018-11-12T01:26:56.489Z,0.60
2018-11-12T01:29:25.136Z,0.60
2018-11-12T01:31:53.656Z,0.60
2018-11-12T01:34:22.101Z,0.50
2018-11-12T01:36:50.691Z,0.47
2018-11-12T01:39:19.159Z,0.60
2018-11-12T01:41:47.664Z,0.70
2018-11-12T01:44:16.086Z,0.57
2018-11-12T01:46:44.639Z,0.50
2018-11-12T01:49:13.117Z,0.60
2018-11-12T01:51:41.685Z,0.60
2018-11-12T01:54:10.129Z,0.73
2018-11-12T01:56:38.965Z,0.70
2018-11-12T01:59:07.482Z,0.60
2018-11-12T02:01:36.043Z,0.57
2018-11-12T02:04:05.637Z,0.43
2018-11-12T02:06:34.108Z,0.60
2018-11-12T02:09:02.799Z,0.50
2018-11-12T02:11:31.256Z,0.73
2018-11-12T02:13:59.895Z,0.60
2018-11-12T02:16:28.649Z,0.83
2018-11-12T02:18:57.262Z,0.60
2018-11-12T02:21:25.856Z,0.70
2018-11-12T02:23:54.447Z,0.40
2018-11-12T02:26:22.952Z,0.63
2018-11-12T02:28:51.454Z,0.50
2018-11-12T02:31:20.104Z,0.80
2018-11-12T02:33:48.852Z,0.80
2018-11-12T02:36:18.434Z,0.40
2018-11-12T02:38:47.045Z,0.60
2018-11-12T02:41:15.488Z,0.60
2018-11-12T02:43:44.084Z,0.50
2018-11-12T02:46:12.572Z,0.40
2018-11-12T02:48:41.037Z,0.57
2018-11-12T02:51:09.483Z,0.50
2018-11-12T02:53:38.969Z,0.53
2018-11-12T02:56:11.185Z,0.57
2018-11-12T02:58:39.761Z,0.80
2018-11-12T03:01:08.554Z,0.50
2018-11-12T03:03:37.090Z,0.80
2018-11-12T03:06:05.608Z,0.60
2018-11-12T03:08:34.082Z,0.50
2018-11-12T03:11:02.645Z,0.50
2018-11-12T03:13:31.238Z,0.60
2018-11-12T03:15:59.760Z,0.53
2018-11-12T03:18:28.357Z,0.67
2018-11-12T03:20:56.802Z,0.50
2018-11-12T03:23:25.325Z,0.60
2018-11-12T03:25:53.773Z,0.70
2018-11-12T03:28:22.244Z,0.60
2018-11-12T03:30:50.720Z,0.57
2018-11-12T03:33:19.430Z,0.60
2018-11-12T03:35:47.894Z,0.60
2018-11-12T03:38:16.338Z,0.60
2018-11-12T03:40:45.254Z,0.70
2018-11-12T03:43:13.758Z,0.50
2018-11-12T03:45:42.207Z,0.70
2018-11-12T03:48:10.691Z,0.70
2018-11-12T03:50:39.188Z,0.70
2018-11-12T03:53:08.041Z,0.50
2018-11-12T03:55:36.641Z,0.60
2018-11-12T03:58:05.705Z,0.60
2018-11-12T04:00:34.402Z,0.60
2018-11-12T04:03:06.877Z,0.70
2018-11-12T04:05:35.569Z,0.47
2018-11-12T04:08:11.299Z,0.60
2018-11-12T04:10:40.259Z,0.50
2018-11-12T04:13:08.909Z,0.50
2018-11-12T04:15:37.568Z,0.40
2018-11-12T04:18:06.058Z,0.60
2018-11-12T04:20:34.657Z,1.07
2018-11-12T04:23:03.841Z,0.60
2018-11-12T04:25:34.147Z,0.60
2018-11-12T04:28:02.785Z,0.57
2018-11-12T04:30:31.218Z,0.50
2018-11-12T04:32:59.771Z,0.53
2018-11-12T04:35:28.292Z,0.53
2018-11-12T04:37:56.989Z,0.57
2018-11-12T04:40:25.637Z,0.67
2018-11-12T04:42:54.602Z,0.60
2018-11-12T04:45:23.886Z,0.60
2018-11-12T04:47:53.054Z,0.60
2018-11-12T04:50:23.030Z,0.60
2018-11-12T04:52:51.976Z,0.60
2018-11-12T04:55:21.193Z,0.60
2018-11-12T04:57:49.672Z,0.77
2018-11-12T05:00:21.603Z,0.73
2018-11-12T05:02:50.232Z,0.60
2018-11-12T05:05:20.130Z,0.60
2018-11-12T05:07:48.684Z,0.57
2018-11-12T05:10:19.605Z,0.47
2018-11-12T05:12:48.749Z,0.60
2018-11-12T05:15:22.033Z,0.60
2018-11-12T05:17:50.557Z,0.50
2018-11-12T05:20:34.169Z,0.50
2018-11-12T05:23:02.620Z,0.70
2018-11-12T05:25:31.048Z,0.50
2018-11-12T05:27:59.647Z,0.50
2018-11-12T05:30:28.899Z,0.90
2018-11-12T05:32:57.984Z,0.53
2018-11-12T05:35:27.619Z,0.67
2018-11-12T05:37:56.222Z,0.40
2018-11-12T05:40:26.696Z,0.60
2018-11-12T05:42:55.345Z,0.73
2018-11-12T05:45:25.242Z,0.60
2018-11-12T05:47:53.787Z,0.50
2018-11-12T05:50:25.697Z,0.63
2018-11-12T05:52:55.797Z,0.70
2018-11-12T05:55:25.558Z,0.57
2018-11-12T05:57:54.365Z,0.87
2018-11-12T06:00:26.265Z,0.60
2018-11-12T06:02:55.296Z,1.10
2018-11-12T06:05:24.234Z,0.83
2018-11-12T06:07:52.709Z,1.00
2018-11-12T06:10:25.554Z,0.80
2018-11-12T06:12:53.980Z,0.90
2018-11-12T06:15:23.372Z,0.80
2018-11-12T06:17:52.291Z,0.73
2018-11-12T06:20:23.963Z,0.70
2018-11-12T06:22:53.173Z,0.80
2018-11-12T06:25:23.283Z,0.80
2018-11-12T06:27:52.132Z,0.80
2018-11-12T06:30:23.603Z,0.83
2018-11-12T06:32:52.119Z,0.80
2018-11-12T06:35:21.089Z,1.00
2018-11-12T06:37:51.046Z,0.80
2018-11-12T06:40:21.026Z,0.90
2018-11-12T06:42:49.666Z,0.80
2018-11-12T06:45:19.932Z,0.80
2018-11-12T06:47:51.056Z,0.80
2018-11-12T06:50:22.007Z,0.77
2018-11-12T06:52:50.817Z,0.90
2018-11-12T06:55:19.786Z,0.87
2018-11-12T06:57:49.697Z,0.80
2018-11-12T07:00:25.128Z,0.90
2018-11-12T07:02:53.883Z,0.77
2018-11-12T07:05:22.470Z,0.90
2018-11-12T07:07:51.080Z,0.80
2018-11-12T07:10:21.347Z,0.80
2018-11-12T07:12:56.976Z,1.00
2018-11-12T07:15:31.311Z,0.60
2018-11-12T07:18:15.612Z,0.90
2018-11-12T07:20:44.334Z,0.60
2018-11-12T07:23:13.246Z,0.70
2018-11-12T07:25:42.103Z,0.70
2018-11-12T07:28:10.794Z,0.73
2018-11-12T07:30:39.480Z,0.67
2018-11-12T07:33:08.053Z,0.50
2018-11-12T07:35:36.778Z,0.70
2018-11-12T07:38:05.940Z,0.60
2018-11-12T07:40:34.479Z,0.67
2018-11-12T07:43:02.951Z,0.70
2018-11-12T07:45:31.358Z,0.60
2018-11-12T07:47:59.855Z,0.70
2018-11-12T07:50:29.496Z,0.70
2018-11-12T07:52:58.041Z,0.80
2018-11-12T07:55:27.608Z,0.70
2018-11-12T07:57:56.996Z,0.73
2018-11-12T08:00:26.818Z,0.80
2018-11-12T08:03:00.954Z,0.60
2018-11-12T08:05:29.387Z,0.60
2018-11-12T08:07:57.820Z,0.60
2018-11-12T08:10:26.357Z,0.70
2018-11-12T08:12:55.125Z,0.80
2018-11-12T08:15:23.722Z,0.70
2018-11-12T08:17:52.177Z,0.70
2018-11-12T08:20:22.789Z,0.70
2018-11-12T08:22:51.783Z,0.80
2018-11-12T08:25:20.417Z,0.70
2018-11-12T08:27:49.792Z,0.70
2018-11-12T08:30:21.557Z,0.80
2018-11-12T08:32:51.397Z,0.80
2018-11-12T08:35:23.244Z,0.70
2018-11-12T08:37:52.089Z,0.70
2018-11-12T08:40:21.944Z,0.70
2018-11-12T08:42:50.732Z,0.57
2018-11-12T08:45:19.170Z,0.87
2018-11-12T08:47:49.073Z,0.87
2018-11-12T08:50:19.198Z,0.90
2018-11-12T08:52:48.577Z,0.90
2018-11-12T08:55:20.409Z,0.80
2018-11-12T08:57:51.127Z,0.60
2018-11-12T09:00:21.999Z,0.50
2018-11-12T09:02:50.722Z,0.70
2018-11-12T09:05:20.437Z,0.87
2018-11-12T09:07:50.461Z,0.70
2018-11-12T09:10:21.926Z,0.80
2018-11-12T09:12:50.400Z,0.70
2018-11-12T09:15:18.911Z,0.97
2018-11-12T09:17:48.000Z,0.80
2018-11-12T09:20:17.960Z,0.63
2018-11-12T09:22:46.652Z,0.83
2018-11-12T09:25:18.434Z,0.60
2018-11-12T09:27:47.090Z,0.80
2018-11-12T09:30:22.045Z,0.90
2018-11-12T09:32:50.595Z,0.70
2018-11-12T09:35:21.228Z,0.90
2018-11-12T09:37:50.554Z,0.80
2018-11-12T09:40:28.420Z,0.90
2018-11-12T09:42:57.026Z,0.60
2018-11-12T09:45:25.743Z,0.90
2018-11-12T09:47:54.567Z,1.00
2018-11-12T09:50:24.874Z,0.90
2018-11-12T09:53:46.899Z,1.10
2018-11-12T09:56:27.678Z,0.80
2018-11-12T09:58:56.658Z,0.77
2018-11-12T10:01:25.824Z,0.90
2018-11-12T10:03:54.747Z,1.00
2018-11-12T10:06:24.667Z,1.00
2018-11-12T10:08:54.121Z,0.90
2018-11-12T10:11:22.514Z,1.00
2018-11-12T10:13:52.421Z,0.90
2018-11-12T10:16:19.842Z,0.90
2018-11-12T10:18:45.651Z,1.10
2018-11-12T10:21:14.076Z,1.10
2018-11-12T10:23:42.625Z,1.10
2018-11-12T10:26:11.274Z,0.90
2018-11-12T10:28:39.768Z,1.20
2018-11-12T10:31:08.619Z,0.90
2018-11-12T10:33:37.017Z,0.90
2018-11-12T10:36:06.340Z,0.90
2018-11-12T10:38:34.823Z,0.87
2018-11-12T10:41:03.298Z,0.80
2018-11-12T10:43:31.805Z,0.77
2018-11-12T10:46:00.235Z,1.00
2018-11-12T10:48:29.040Z,1.30
2018-11-12T10:51:05.030Z,1.27
2018-11-12T10:53:25.916Z,1.10
2018-11-12T10:55:54.513Z,1.37
2018-11-12T10:58:23.748Z,1.30
2018-11-12T11:00:57.839Z,1.50
2018-11-12T11:03:31.038Z,1.40
2018-11-12T11:05:59.697Z,1.57
2018-11-12T11:08:28.799Z,1.70
2018-11-12T11:10:57.257Z,1.30
2018-11-12T11:13:25.730Z,1.03
2018-11-12T11:15:54.270Z,1.20
2018-11-12T11:18:24.013Z,1.30
2018-11-12T11:20:52.430Z,1.20
2018-11-12T11:23:20.956Z,1.10
2018-11-12T11:25:49.386Z,1.50
2018-11-12T11:28:17.859Z,1.30
2018-11-12T11:30:46.343Z,1.50
2018-11-12T11:33:14.818Z,1.40
2018-11-12T11:35:47.206Z,1.20
2018-11-12T11:38:15.651Z,1.30
2018-11-12T11:40:44.233Z,1.37
2018-11-12T11:43:12.713Z,1.40
2018-11-12T11:45:41.228Z,1.53
2018-11-12T11:48:09.808Z,1.30
2018-11-12T11:50:38.253Z,1.30
2018-11-12T11:53:07.315Z,1.43
2018-11-12T11:55:35.746Z,1.30
2018-11-12T11:58:04.239Z,1.30
2018-11-12T12:00:32.713Z,1.40
2018-11-12T12:03:01.520Z,1.40
2018-11-12T12:05:29.904Z,1.40
2018-11-12T12:07:58.516Z,1.40
2018-11-12T12:10:27.141Z,1.63
2018-11-12T12:12:55.574Z,1.50
2018-11-12T12:15:24.271Z,1.40
2018-11-12T12:17:53.081Z,1.40
2018-11-12T12:20:23.531Z,1.20
2018-11-12T12:22:52.382Z,1.17
2018-11-12T12:25:21.206Z,1.27
2018-11-12T12:27:50.064Z,1.63
2018-11-12T12:30:19.946Z,1.40
2018-11-12T12:32:49.396Z,1.40
2018-11-12T12:35:18.045Z,1.60
2018-11-12T12:37:46.951Z,1.40
2018-11-12T12:40:17.126Z,1.37
2018-11-12T12:42:45.549Z,1.60
2018-11-12T12:45:15.514Z,1.60
2018-11-12T12:47:44.276Z,1.50
2018-11-12T12:50:13.766Z,1.43
2018-11-12T12:52:42.508Z,1.77
2018-11-12T12:55:12.091Z,1.83
2018-11-12T12:57:41.475Z,1.70
2018-11-12T13:00:15.054Z,1.90
2018-11-12T13:02:43.863Z,1.80
2018-11-12T13:05:12.357Z,1.50
2018-11-12T13:07:41.262Z,1.80
2018-11-12T13:10:11.751Z,1.70
2018-11-12T13:12:40.399Z,1.53
2018-11-12T13:15:11.080Z,1.67
2018-11-12T13:17:39.640Z,1.67
2018-11-12T13:20:10.282Z,1.87
2018-11-12T13:22:38.772Z,1.90
2018-11-12T13:25:08.215Z,1.53
2018-11-12T13:27:36.819Z,1.40
2018-11-12T13:30:11.612Z,1.67
2018-11-12T13:32:40.609Z,1.90
2018-11-12T13:35:11.084Z,1.80
2018-11-12T13:37:39.803Z,1.77
2018-11-12T13:40:13.031Z,1.90
2018-11-12T13:42:42.910Z,2.07
2018-11-12T13:45:11.646Z,1.37
2018-11-12T13:47:40.071Z,1.53
2018-11-12T13:50:14.130Z,1.67
2018-11-12T13:52:42.804Z,1.70
2018-11-12T13:55:12.399Z,1.60
2018-11-12T13:57:40.993Z,1.90
2018-11-12T14:00:12.470Z,1.70
2018-11-12T14:02:41.624Z,1.67
2018-11-12T14:05:12.511Z,1.30
2018-11-12T14:07:41.576Z,1.37
2018-11-12T14:10:12.238Z,1.10
2018-11-12T14:12:41.416Z,1.10
2018-11-12T14:15:12.436Z,1.07
2018-11-12T14:17:41.648Z,1.17
2018-11-12T14:20:10.252Z,1.03
2018-11-12T14:22:39.019Z,1.17
2018-11-12T14:25:09.670Z,1.10
2018-11-12T14:27:38.102Z,1.07
2018-11-12T14:30:09.040Z,1.07
2018-11-12T14:32:37.520Z,1.00
2018-11-12T14:35:07.387Z,1.23
2018-11-12T14:37:36.041Z,0.90
2018-11-12T14:40:06.482Z,1.00
2018-11-12T14:42:35.267Z,1.00
2018-11-12T14:45:04.819Z,1.00
2018-11-12T14:47:33.530Z,1.00
2018-11-12T14:50:02.215Z,0.80
2018-11-12T14:52:30.730Z,1.00
2018-11-12T14:54:59.310Z,0.90
2018-11-12T14:57:28.104Z,1.30
2018-11-12T14:59:56.794Z,0.97
2018-11-12T15:02:26.822Z,0.90
2018-11-12T15:04:56.403Z,0.90
2018-11-12T15:07:25.117Z,0.90
2018-11-12T15:09:53.479Z,0.90
2018-11-12T15:12:21.984Z,0.97
2018-11-12T15:14:50.784Z,1.00
2018-11-12T15:17:19.180Z,1.57
2018-11-12T15:19:47.594Z,1.70
2018-11-12T15:22:16.167Z,1.67
2018-11-12T15:24:44.581Z,1.60
2018-11-12T15:27:12.980Z,1.60
2018-11-12T15:29:41.401Z,1.20
2018-11-12T15:32:09.879Z,1.13
2018-11-12T15:34:38.477Z,1.00
2018-11-12T15:37:07.505Z,0.90
2018-11-12T15:39:35.906Z,1.10
2018-11-12T15:42:04.540Z,1.07
2018-11-12T15:44:32.980Z,1.10
2018-11-12T15:47:01.672Z,1.00
2018-11-12T15:49:30.568Z,1.10
2018-11-12T15:51:59.591Z,1.10
2018-11-12T15:54:28.127Z,0.90
2018-11-12T15:56:56.761Z,1.17
2018-11-12T15:59:25.418Z,1.37
2018-11-12T16:01:54.420Z,1.10
2018-11-12T16:04:22.898Z,1.30
2018-11-12T16:06:51.332Z,1.17
2018-11-12T16:09:19.991Z,1.20
2018-11-12T16:11:48.695Z,1.10
2018-11-12T16:14:17.302Z,1.20
2018-11-12T16:16:45.819Z,1.30
2018-11-12T16:19:14.455Z,1.20
2018-11-12T16:21:43.055Z,1.30
2018-11-12T16:24:11.650Z,1.33
2018-11-12T16:26:40.509Z,1.40
2018-11-12T16:29:09.439Z,1.70
2018-11-12T16:31:38.053Z,1.53
2018-11-12T16:34:07.103Z,1.70
2018-11-12T16:36:36.873Z,1.53
2018-11-12T16:39:09.136Z,1.57
2018-11-12T16:41:39.335Z,1.77
2018-11-12T16:44:08.606Z,1.67
2018-11-12T16:46:37.381Z,1.57
2018-11-12T16:49:06.198Z,1.80
2018-11-12T16:51:35.731Z,2.10
2018-11-12T16:54:05.148Z,1.80
2018-11-12T16:56:33.652Z,1.63
2018-11-12T16:59:02.702Z,1.80
2018-11-12T17:01:32.259Z,1.77
2018-11-12T17:04:00.927Z,1.83
2018-11-12T17:06:29.752Z,1.93
2018-11-12T17:08:58.849Z,1.57
2018-11-12T17:11:27.772Z,1.77
2018-11-12T17:13:56.356Z,1.90
2018-11-12T17:16:24.810Z,1.50
2018-11-12T17:18:54.610Z,1.50
2018-11-12T17:21:23.512Z,1.53
2018-11-12T17:23:52.623Z,1.47
2018-11-12T17:26:21.512Z,1.57
2018-11-12T17:28:49.937Z,1.63
2018-11-12T17:31:18.668Z,1.60
2018-11-12T17:33:47.096Z,1.40
2018-11-12T17:36:15.763Z,1.50
2018-11-12T17:38:44.283Z,1.60
2018-11-12T17:41:12.840Z,1.30
2018-11-12T17:43:41.309Z,1.50
2018-11-12T17:46:09.790Z,1.30
2018-11-12T17:48:38.370Z,1.37
2018-11-12T17:51:07.004Z,1.53
2018-11-12T17:53:35.453Z,1.40
2018-11-12T17:56:04.254Z,1.63
2018-11-12T17:58:32.847Z,1.30
2018-11-12T18:01:01.400Z,1.60
2018-11-12T18:03:29.830Z,1.40
2018-11-12T18:05:58.261Z,1.60
2018-11-12T18:08:28.656Z,1.57
2018-11-12T18:10:57.019Z,1.60
2018-11-12T18:13:25.535Z,1.30
2018-11-12T18:15:54.965Z,1.50
2018-11-12T18:18:23.515Z,1.50
2018-11-12T18:20:52.008Z,1.60
2018-11-12T18:23:20.541Z,1.97
2018-11-12T18:25:49.954Z,1.80
2018-11-12T18:28:18.561Z,1.83
2018-11-12T18:30:47.477Z,1.73
2018-11-12T18:33:15.817Z,1.77
2018-11-12T18:35:44.755Z,1.60
2018-11-12T18:38:13.541Z,1.83
2018-11-12T18:40:42.969Z,2.07
2018-11-12T18:43:11.531Z,1.73
2018-11-12T18:45:39.958Z,1.70
2018-11-12T18:48:08.720Z,1.70
2018-11-12T18:50:37.495Z,1.83
2018-11-12T18:53:05.974Z,2.20
2018-11-12T18:55:34.714Z,1.80
2018-11-12T18:58:03.600Z,1.60
2018-11-12T19:00:33.123Z,1.70
2018-11-12T19:03:01.850Z,1.63
2018-11-12T19:05:30.373Z,1.50
2018-11-12T19:08:00.265Z,1.87
2018-11-12T19:10:30.116Z,2.00
2018-11-12T19:12:58.941Z,1.57
2018-11-12T19:15:29.402Z,1.63
2018-11-12T19:18:00.332Z,1.40
2018-11-12T19:20:28.957Z,1.50
2018-11-12T19:22:57.510Z,1.40
2018-11-12T19:25:26.131Z,1.37
2018-11-12T19:27:54.636Z,1.53
2018-11-12T19:30:24.252Z,1.40
2018-11-12T19:32:52.653Z,1.47
2018-11-12T19:35:22.803Z,1.47
2018-11-12T19:37:51.237Z,1.13
2018-11-12T19:40:21.238Z,1.27
2018-11-12T19:42:54.919Z,1.40
2018-11-12T19:45:23.512Z,1.40
2018-11-12T19:47:53.054Z,1.50
2018-11-12T19:50:23.048Z,1.23
2018-11-12T19:52:53.048Z,1.50
2018-11-12T19:55:21.478Z,1.37
2018-11-12T19:57:50.226Z,1.60
2018-11-12T20:00:20.438Z,1.50
2018-11-12T20:02:49.883Z,1.50
2018-11-12T20:05:18.479Z,1.43
2018-11-12T20:07:47.155Z,1.40
2018-11-12T20:10:17.524Z,1.33
2018-11-12T20:12:46.148Z,1.67
2018-11-12T20:15:16.211Z,1.53
2018-11-12T20:17:46.123Z,1.50
2018-11-12T20:20:21.172Z,1.60
2018-11-12T20:22:50.121Z,1.43
2018-11-12T20:25:19.239Z,1.47
2018-11-12T20:27:48.761Z,1.33
2018-11-12T20:30:22.236Z,1.17
2018-11-12T20:32:50.897Z,1.50
2018-11-12T20:35:20.015Z,1.27
2018-11-12T20:37:48.628Z,1.50
2018-11-12T20:40:17.298Z,1.27
2018-11-12T20:42:46.542Z,1.30
2018-11-12T20:45:16.743Z,1.30
2018-11-12T20:47:46.749Z,1.60
2018-11-12T20:50:15.778Z,1.37
2018-11-12T20:52:44.611Z,1.30
2018-11-12T20:55:14.143Z,1.23
2018-11-12T20:57:42.893Z,1.43
2018-11-12T21:00:15.031Z,1.20
2018-11-12T21:02:45.023Z,1.20
2018-11-12T21:05:14.188Z,1.40
2018-11-12T21:07:43.626Z,1.23
2018-11-12T21:10:14.424Z,1.43
2018-11-12T21:12:43.149Z,1.30
2018-11-12T21:15:13.035Z,1.40
2018-11-12T21:17:41.846Z,1.33
2018-11-12T21:20:17.003Z,1.50
2018-11-12T21:22:45.461Z,1.40
2018-11-12T21:25:15.309Z,1.43
2018-11-12T21:27:43.994Z,1.40
2018-11-12T21:30:16.677Z,1.50
2018-11-12T21:32:45.411Z,1.50
2018-11-12T21:35:13.970Z,1.30
2018-11-12T21:37:42.592Z,1.53
2018-11-12T21:40:14.508Z,1.50
2018-11-12T21:42:43.157Z,1.30
2018-11-12T21:45:13.813Z,1.57
2018-11-12T21:47:42.811Z,1.50
2018-11-12T21:50:13.468Z,1.50
2018-11-12T21:52:41.982Z,1.60
2018-11-12T21:55:11.207Z,1.57
2018-11-12T21:57:40.187Z,1.50
2018-11-12T22:00:30.453Z,1.37
2018-11-12T22:03:00.202Z,1.67
2018-11-12T22:05:29.827Z,1.80
2018-11-12T22:07:58.246Z,1.60
2018-11-12T22:10:27.075Z,1.40
2018-11-12T22:12:55.670Z,1.37
2018-11-12T22:15:24.212Z,1.33
2018-11-12T22:17:52.581Z,1.50
2018-11-12T22:20:22.645Z,1.50
2018-11-12T22:22:51.088Z,1.60
2018-11-12T22:25:20.702Z,1.50
2018-11-12T22:27:49.925Z,1.50
2018-11-12T22:30:20.002Z,1.40
2018-11-12T22:32:49.751Z,1.50
2018-11-12T22:35:18.218Z,1.70
2018-11-12T22:37:47.146Z,1.40
2018-11-12T22:40:16.338Z,1.40
2018-11-12T22:42:45.643Z,1.60
2018-11-12T22:45:15.425Z,1.40
2018-11-12T22:47:44.545Z,1.80
2018-11-12T22:50:13.146Z,1.43
2018-11-12T22:52:42.232Z,1.47
2018-11-12T22:55:12.051Z,1.63
2018-11-12T22:57:40.661Z,1.70
2018-11-12T23:00:25.643Z,1.73
2018-11-12T23:02:54.372Z,1.67
2018-11-12T23:05:23.077Z,1.53
2018-11-12T23:07:52.259Z,1.43
2018-11-12T23:10:20.972Z,1.40
2018-11-12T23:12:49.432Z,1.40
2018-11-12T23:15:18.541Z,1.27
2018-11-12T23:17:46.984Z,1.57
2018-11-12T23:20:17.581Z,1.23
2018-11-12T23:22:46.741Z,1.30
2018-11-12T23:25:15.205Z,1.43
2018-11-12T23:27:44.406Z,1.30
2018-11-12T23:30:14.789Z,1.27
2018-11-12T23:32:43.313Z,1.57
2018-11-12T23:35:13.862Z,1.30
2018-11-12T23:37:43.084Z,1.33
2018-11-12T23:40:11.946Z,1.30
2018-11-12T23:42:40.854Z,1.40
2018-11-12T23:45:09.363Z,1.17
2018-11-12T23:47:38.125Z,1.10
2018-11-12T23:50:13.013Z,1.07
2018-11-12T23:52:56.374Z,1.20
2018-11-12T23:55:24.788Z,1.27
2018-11-12T23:57:53.256Z,1.20
